Time;durP1;ratioP1;P1;durP2;ratioP2;P2;SDS_P1;SDS_P2;PMS_P1;PMS_P2;Temp;Humidity;BMP_temperature;BMP_pressure;BME280_temperature;BME280_humidity;BME280_pressure;Samples;Min_cycle;Max_cycle;Signal;HPM_P1;HPM_P2
2021/12/03 00:02:20;;;;;;;7.88;1.90;;;;;;;;;;5045791;28;20124;-79
2021/12/03 00:04:46;;;;;;;11.88;2.67;;;;;;;;;;5041993;28;20037;-79
2021/12/03 00:07:12;;;;;;;10.73;2.90;;;;;;;;;;5036674;28;20041;-79
2021/12/03 00:09:39;;;;;;;5.63;2.20;;;;;;;;;;5042488;28;20048;-80
2021/12/03 00:12:06;;;;;;;5.57;2.30;;;;;;;;;;5045647;28;20041;-79
2021/12/03 00:14:33;;;;;;;6.95;3.28;;;;;;;;;;5044880;28;20380;-79
2021/12/03 00:16:59;;;;;;;9.35;3.22;;;;;;;;;;5045006;28;20347;-79
2021/12/03 00:19:26;;;;;;;13.43;2.50;;;;;;;;;;5043992;28;20472;-79
2021/12/03 00:21:52;;;;;;;4.53;1.90;;;;;;;;;;5044530;28;20044;-80
2021/12/03 00:24:18;;;;;;;5.75;2.28;;;;;;;;;;5045759;28;20041;-79
2021/12/03 00:26:44;;;;;;;5.55;2.15;;;;;;;;;;5042151;28;20144;-79
2021/12/03 00:29:10;;;;;;;13.02;2.35;;;;;;;;;;5060685;28;20074;-79
2021/12/03 00:31:36;;;;;;;9.35;2.47;;;;;;;;;;5044932;28;20034;-79
2021/12/03 00:34:03;;;;;;;8.57;2.00;;;;;;;;;;5043578;28;20044;-79
2021/12/03 00:36:29;;;;;;;9.32;1.98;;;;;;;;;;5043197;28;20111;-79
2021/12/03 00:38:58;;;;;;;6.43;1.77;;;;;;;;;;5041497;28;20055;-78
2021/12/03 00:41:28;;;;;;;4.30;1.55;;;;;;;;;;5044458;28;20094;-80
2021/12/03 00:43:54;;;;;;;9.32;1.73;;;;;;;;;;5043244;28;20102;-79
2021/12/03 00:46:21;;;;;;;7.63;1.88;;;;;;;;;;5042203;28;20463;-79
2021/12/03 00:48:49;;;;;;;7.93;2.08;;;;;;;;;;5059753;28;20042;-77
2021/12/03 00:51:15;;;;;;;11.05;2.20;;;;;;;;;;5046082;28;20041;-79
2021/12/03 00:53:42;;;;;;;5.90;2.25;;;;;;;;;;5049189;28;20096;-79
2021/12/03 00:56:09;;;;;;;5.55;2.20;;;;;;;;;;5061260;28;20048;-80
2021/12/03 00:58:35;;;;;;;9.30;2.30;;;;;;;;;;5054324;28;20043;-79
2021/12/03 01:01:02;;;;;;;9.32;2.10;;;;;;;;;;5046872;28;20043;-79
2021/12/03 01:03:28;;;;;;;10.70;2.58;;;;;;;;;;5047868;28;20049;-79
2021/12/03 01:05:55;;;;;;;8.57;2.70;;;;;;;;;;5045059;28;20492;-79
2021/12/03 01:08:21;;;;;;;10.38;2.83;;;;;;;;;;5047368;28;20396;-79
2021/12/03 01:10:47;;;;;;;6.00;2.60;;;;;;;;;;5036686;28;20457;-80
2021/12/03 01:13:14;;;;;;;6.88;2.80;;;;;;;;;;5048097;28;20104;-79
2021/12/03 01:15:40;;;;;;;7.10;2.50;;;;;;;;;;5045781;28;20040;-79
2021/12/03 01:18:07;;;;;;;10.27;2.42;;;;;;;;;;5047341;28;20155;-79
2021/12/03 01:20:34;;;;;;;6.70;2.38;;;;;;;;;;5046984;28;20064;-80
2021/12/03 01:23:00;;;;;;;5.53;2.13;;;;;;;;;;5045550;28;20131;-80
2021/12/03 01:25:27;;;;;;;4.85;1.67;;;;;;;;;;5047395;28;20535;-81
2021/12/03 01:27:54;;;;;;;4.30;1.50;;;;;;;;;;5047631;28;20037;-82
2021/12/03 01:30:21;;;;;;;7.50;1.48;;;;;;;;;;5046448;28;20094;-80
2021/12/03 01:32:48;;;;;;;6.68;1.73;;;;;;;;;;5049107;28;20397;-80
2021/12/03 01:35:14;;;;;;;9.57;1.65;;;;;;;;;;5042091;28;20076;-80
2021/12/03 01:37:40;;;;;;;3.75;1.55;;;;;;;;;;5045847;28;20057;-80
2021/12/03 01:40:08;;;;;;;4.90;2.03;;;;;;;;;;5046271;28;20037;-80
2021/12/03 01:42:35;;;;;;;2.10;1.10;;;;;;;;;;5048614;28;20087;-79
2021/12/03 01:45:01;;;;;;;9.05;1.67;;;;;;;;;;5043435;28;20099;-80
2021/12/03 01:47:27;;;;;;;6.38;1.42;;;;;;;;;;5047761;28;20489;-80
2021/12/03 01:49:53;;;;;;;4.95;1.25;;;;;;;;;;5047296;28;20044;-80
2021/12/03 01:52:19;;;;;;;5.25;1.67;;;;;;;;;;5046714;28;20057;-82
2021/12/03 01:54:45;;;;;;;2.03;1.00;;;;;;;;;;5046927;28;20041;-81
2021/12/03 01:57:11;;;;;;;2.15;0.80;;;;;;;;;;5027540;28;20052;-81
2021/12/03 01:59:37;;;;;;;6.32;0.90;;;;;;;;;;5043482;28;20569;-81
2021/12/03 02:02:04;;;;;;;7.80;2.20;;;;;;;;;;5044763;28;20512;-81
2021/12/03 02:04:30;;;;;;;9.07;1.20;;;;;;;;;;5046352;28;20057;-80
2021/12/03 02:06:56;;;;;;;5.40;1.02;;;;;;;;;;5056946;28;20080;-80
2021/12/03 02:09:22;;;;;;;4.28;1.08;;;;;;;;;;5044733;28;20041;-81
2021/12/03 02:11:48;;;;;;;3.40;1.90;;;;;;;;;;5042275;28;20056;-81
2021/12/03 02:14:14;;;;;;;4.63;1.55;;;;;;;;;;5043343;28;20084;-81
2021/12/03 02:16:44;;;;;;;6.97;1.63;;;;;;;;;;5044585;28;20496;-80
2021/12/03 02:19:10;;;;;;;6.45;1.75;;;;;;;;;;5043156;28;20025;-81
2021/12/03 02:21:36;;;;;;;8.25;2.03;;;;;;;;;;5045499;28;20037;-81
2021/12/03 02:24:02;;;;;;;8.43;2.88;;;;;;;;;;5045460;28;20045;-81
2021/12/03 02:26:28;;;;;;;5.15;2.40;;;;;;;;;;5044809;28;20063;-81
2021/12/03 02:28:54;;;;;;;9.52;3.08;;;;;;;;;;5046722;28;20029;-81
2021/12/03 02:31:21;;;;;;;5.18;2.30;;;;;;;;;;5060382;28;20041;-81
2021/12/03 02:33:47;;;;;;;14.55;4.00;;;;;;;;;;5043803;28;20085;-81
2021/12/03 02:36:14;;;;;;;10.43;2.22;;;;;;;;;;5045165;28;20130;-82
2021/12/03 02:38:40;;;;;;;3.45;1.67;;;;;;;;;;5047132;28;20492;-83
2021/12/03 02:41:07;;;;;;;3.63;1.58;;;;;;;;;;5024925;28;20110;-82
2021/12/03 02:43:33;;;;;;;3.05;1.90;;;;;;;;;;5047495;28;20034;-83
2021/12/03 02:45:59;;;;;;;7.85;2.20;;;;;;;;;;5044514;28;20053;-82
2021/12/03 02:48:26;;;;;;;3.70;1.85;;;;;;;;;;5045038;28;20044;-82
2021/12/03 02:50:53;;;;;;;4.30;1.27;;;;;;;;;;5047944;28;20515;-82
2021/12/03 02:53:19;;;;;;;7.75;1.73;;;;;;;;;;5045919;28;20044;-82
2021/12/03 02:55:45;;;;;;;6.95;1.75;;;;;;;;;;5046677;28;20057;-82
2021/12/03 02:58:12;;;;;;;5.40;2.75;;;;;;;;;;5045114;28;20102;-81
2021/12/03 03:00:39;;;;;;;5.70;2.03;;;;;;;;;;5046422;28;20060;-82
2021/12/03 03:03:05;;;;;;;4.63;2.35;;;;;;;;;;5044514;28;20048;-81
2021/12/03 03:05:32;;;;;;;7.85;2.20;;;;;;;;;;5044746;28;20048;-82
2021/12/03 03:07:58;;;;;;;3.13;1.80;;;;;;;;;;5043169;28;20046;-81
2021/12/03 03:10:28;;;;;;;6.13;2.67;;;;;;;;;;5043555;28;20069;-81
2021/12/03 03:12:54;;;;;;;6.68;2.50;;;;;;;;;;5046712;28;20157;-81
2021/12/03 03:15:21;;;;;;;5.10;2.33;;;;;;;;;;5043887;28;20084;-82
2021/12/03 03:17:47;;;;;;;10.02;2.72;;;;;;;;;;5044200;28;20045;-81
2021/12/03 03:20:14;;;;;;;5.63;2.42;;;;;;;;;;5043726;28;20044;-81
2021/12/03 03:22:41;;;;;;;3.05;2.45;;;;;;;;;;5045773;28;20052;-80
2021/12/03 03:25:08;;;;;;;9.68;2.75;;;;;;;;;;5046481;28;20179;-81
2021/12/03 03:27:35;;;;;;;7.93;2.60;;;;;;;;;;5044746;28;20075;-81
2021/12/03 03:30:01;;;;;;;6.07;2.97;;;;;;;;;;5046436;28;20428;-81
2021/12/03 03:32:28;;;;;;;6.43;2.35;;;;;;;;;;5043527;28;20049;-83
2021/12/03 03:34:54;;;;;;;6.72;2.53;;;;;;;;;;5046883;28;20045;-81
2021/12/03 03:37:21;;;;;;;5.90;2.22;;;;;;;;;;5042599;28;20056;-82
2021/12/03 03:39:47;;;;;;;4.55;2.30;;;;;;;;;;5046638;28;20040;-81
2021/12/03 03:42:13;;;;;;;4.35;2.53;;;;;;;;;;5043516;28;20168;-82
2021/12/03 03:44:40;;;;;;;9.07;2.60;;;;;;;;;;5044413;28;20119;-81
2021/12/03 03:47:07;;;;;;;8.65;3.42;;;;;;;;;;5045694;28;20033;-82
2021/12/03 03:49:33;;;;;;;7.13;2.92;;;;;;;;;;5041407;28;20131;-81
2021/12/03 03:52:00;;;;;;;8.32;3.35;;;;;;;;;;5043247;28;20049;-82
2021/12/03 03:54:26;;;;;;;6.68;3.15;;;;;;;;;;5042770;28;20128;-82
2021/12/03 03:56:52;;;;;;;10.45;3.80;;;;;;;;;;5043002;28;20037;-80
2021/12/03 03:59:18;;;;;;;6.53;4.28;;;;;;;;;;5041675;28;20045;-82
2021/12/03 04:01:45;;;;;;;16.67;4.68;;;;;;;;;;5040624;28;20741;-82
2021/12/03 04:04:12;;;;;;;7.03;4.60;;;;;;;;;;5044449;28;20107;-82
2021/12/03 04:06:38;;;;;;;11.45;5.20;;;;;;;;;;5043859;28;20033;-81
2021/12/03 04:09:04;;;;;;;13.50;6.72;;;;;;;;;;5046136;28;20064;-80
2021/12/03 04:11:30;;;;;;;13.93;6.28;;;;;;;;;;5044262;28;20091;-80
2021/12/03 04:13:56;;;;;;;21.38;7.47;;;;;;;;;;5046668;28;20041;-80
2021/12/03 04:16:22;;;;;;;17.35;8.55;;;;;;;;;;5039959;28;20052;-81
2021/12/03 04:18:48;;;;;;;17.25;8.75;;;;;;;;;;5044333;28;20072;-81
2021/12/03 04:21:15;;;;;;;16.85;8.88;;;;;;;;;;5044050;28;20080;-82
2021/12/03 04:23:41;;;;;;;19.08;10.25;;;;;;;;;;5044132;28;20036;-81
2021/12/03 04:26:07;;;;;;;23.25;12.35;;;;;;;;;;5045778;28;20048;-81
2021/12/03 04:28:34;;;;;;;25.70;13.85;;;;;;;;;;5044047;28;20037;-82
2021/12/03 04:31:01;;;;;;;26.50;14.70;;;;;;;;;;5043601;28;20147;-80
2021/12/03 04:33:27;;;;;;;23.30;13.13;;;;;;;;;;5044730;28;20106;-82
2021/12/03 04:35:54;;;;;;;26.10;16.05;;;;;;;;;;5044880;28;20142;-81
2021/12/03 04:38:21;;;;;;;29.73;17.38;;;;;;;;;;5040102;28;20813;-81
2021/12/03 04:40:47;;;;;;;32.67;16.92;;;;;;;;;;5042400;28;20033;-80
2021/12/03 04:43:13;;;;;;;34.30;21.23;;;;;;;;;;5045450;28;20488;-80
2021/12/03 04:45:40;;;;;;;39.55;20.45;;;;;;;;;;5043464;28;20029;-81
2021/12/03 04:48:06;;;;;;;35.50;23.20;;;;;;;;;;5045273;28;20076;-81
2021/12/03 04:50:35;;;;;;;39.13;22.48;;;;;;;;;;5046018;28;20037;-81
2021/12/03 04:53:01;;;;;;;42.55;25.92;;;;;;;;;;5046065;28;20099;-81
2021/12/03 04:55:27;;;;;;;42.28;24.77;;;;;;;;;;5043469;28;20199;-80
2021/12/03 04:57:53;;;;;;;38.80;22.52;;;;;;;;;;5046632;28;20045;-80
2021/12/03 05:00:46;;;;;;;41.72;25.80;;;;;;;;;;5043372;28;20049;-81
2021/12/03 05:03:13;;;;;;;42.75;24.73;;;;;;;;;;5040169;28;20119;-81
2021/12/03 05:05:43;;;;;;;40.00;23.50;;;;;;;;;;5039690;28;20203;-79
2021/12/03 05:08:10;;;;;;;48.70;27.70;;;;;;;;;;5042612;28;20397;-80
2021/12/03 05:10:37;;;;;;;34.70;22.15;;;;;;;;;;5041838;28;20817;-81
2021/12/03 05:13:06;;;;;;;45.03;27.48;;;;;;;;;;5040488;28;20468;-80
2021/12/03 05:15:33;;;;;;;38.53;22.65;;;;;;;;;;5040297;28;20090;-80
2021/12/03 05:18:00;;;;;;;40.50;25.25;;;;;;;;;;5044094;28;20041;-81
2021/12/03 05:20:26;;;;;;;31.73;18.23;;;;;;;;;;5037286;28;20573;-81
2021/12/03 05:22:53;;;;;;;37.35;23.77;;;;;;;;;;5042106;28;20179;-81
2021/12/03 05:25:19;;;;;;;38.42;26.27;;;;;;;;;;5040776;28;20045;-80
2021/12/03 05:27:46;;;;;;;31.92;23.33;;;;;;;;;;5039654;28;20048;-80
2021/12/03 05:30:12;;;;;;;30.77;19.65;;;;;;;;;;5041749;28;20051;-80
2021/12/03 05:32:38;;;;;;;41.80;27.60;;;;;;;;;;5043202;28;20053;-81
2021/12/03 05:35:05;;;;;;;38.25;27.00;;;;;;;;;;5044049;28;20032;-80
2021/12/03 05:37:32;;;;;;;39.88;24.90;;;;;;;;;;5040686;28;20492;-80
2021/12/03 05:39:58;;;;;;;38.90;26.52;;;;;;;;;;5048181;28;20033;-80
2021/12/03 05:42:24;;;;;;;31.65;21.80;;;;;;;;;;5045813;28;20039;-80
2021/12/03 05:44:50;;;;;;;37.17;23.02;;;;;;;;;;5047777;28;20416;-80
2021/12/03 05:47:16;;;;;;;38.78;25.30;;;;;;;;;;5046733;28;20080;-80
2021/12/03 05:49:42;;;;;;;39.28;26.13;;;;;;;;;;5046405;28;20606;-79
2021/12/03 05:52:08;;;;;;;34.00;22.95;;;;;;;;;;5046274;28;20071;-79
2021/12/03 05:54:34;;;;;;;29.83;21.98;;;;;;;;;;5047953;28;20045;-80
2021/12/03 05:57:00;;;;;;;35.67;24.17;;;;;;;;;;5045383;28;20404;-80
2021/12/03 05:59:27;;;;;;;28.25;20.50;;;;;;;;;;5046454;28;20059;-81
2021/12/03 06:01:53;;;;;;;38.28;23.27;;;;;;;;;;5046718;28;20033;-80
2021/12/03 06:04:19;;;;;;;29.25;21.45;;;;;;;;;;5044161;28;20059;-80
2021/12/03 06:06:45;;;;;;;33.65;21.85;;;;;;;;;;5047119;28;20582;-80
2021/12/03 06:09:11;;;;;;;30.58;20.95;;;;;;;;;;5045117;28;20123;-79
2021/12/03 06:11:38;;;;;;;26.30;16.42;;;;;;;;;;5046987;28;20045;-79
2021/12/03 06:14:04;;;;;;;31.38;22.48;;;;;;;;;;5027575;28;20124;-79
2021/12/03 06:16:30;;;;;;;15.10;12.07;;;;;;;;;;5028079;28;20037;-79
2021/12/03 06:18:56;;;;;;;27.23;20.27;;;;;;;;;;5033316;28;20087;-79
2021/12/03 06:21:23;;;;;;;29.08;20.88;;;;;;;;;;5045606;28;20044;-79
2021/12/03 06:23:49;;;;;;;26.80;19.25;;;;;;;;;;5046842;28;20123;-80
2021/12/03 06:26:15;;;;;;;31.50;19.58;;;;;;;;;;5045328;28;20112;-81
2021/12/03 06:28:41;;;;;;;27.80;20.10;;;;;;;;;;5045549;28;20508;-82
2021/12/03 06:31:08;;;;;;;26.80;15.85;;;;;;;;;;5045552;28;20036;-79
2021/12/03 06:33:34;;;;;;;25.13;18.23;;;;;;;;;;5046758;28;20488;-80
2021/12/03 06:36:00;;;;;;;21.25;15.63;;;;;;;;;;5046070;28;20136;-79
2021/12/03 06:38:26;;;;;;;22.02;17.92;;;;;;;;;;5046037;28;20056;-79
2021/12/03 06:40:53;;;;;;;31.35;25.08;;;;;;;;;;5045086;28;20140;-80
2021/12/03 06:43:19;;;;;;;31.58;20.80;;;;;;;;;;5045111;28;20041;-79
2021/12/03 06:45:46;;;;;;;16.13;13.77;;;;;;;;;;5029875;28;20049;-80
2021/12/03 06:48:13;;;;;;;27.27;18.58;;;;;;;;;;5046397;28;20045;-80
2021/12/03 06:50:39;;;;;;;33.30;22.60;;;;;;;;;;5044642;28;20551;-80
2021/12/03 06:53:12;;;;;;;27.02;20.65;;;;;;;;;;5043147;28;20350;-81
2021/12/03 06:55:50;;;;;;;21.90;17.05;;;;;;;;;;5046669;28;20881;-81
2021/12/03 06:58:17;;;;;;;32.00;19.08;;;;;;;;;;5046553;28;20080;-80
2021/12/03 07:00:44;;;;;;;25.98;20.35;;;;;;;;;;5044576;28;20037;-80
2021/12/03 07:03:10;;;;;;;31.40;20.50;;;;;;;;;;5044750;28;20033;-80
2021/12/03 07:05:37;;;;;;;19.65;14.68;;;;;;;;;;5046931;28;20044;-80
2021/12/03 07:08:03;;;;;;;35.22;24.10;;;;;;;;;;5046356;28;20430;-80
2021/12/03 07:10:30;;;;;;;34.13;26.08;;;;;;;;;;5045522;28;20025;-81
2021/12/03 07:12:56;;;;;;;34.58;26.23;;;;;;;;;;5043808;28;20081;-80
2021/12/03 07:15:22;;;;;;;35.90;25.70;;;;;;;;;;5047202;28;20080;-81
2021/12/03 07:17:50;;;;;;;35.50;26.95;;;;;;;;;;5027775;28;20083;-81
2021/12/03 07:20:17;;;;;;;44.33;29.33;;;;;;;;;;5045399;28;20052;-81
2021/12/03 07:22:43;;;;;;;34.80;26.45;;;;;;;;;;5046520;28;20064;-80
2021/12/03 07:25:10;;;;;;;41.17;24.92;;;;;;;;;;5045249;28;20124;-81
2021/12/03 07:27:36;;;;;;;41.28;27.00;;;;;;;;;;5047376;28;20052;-81
2021/12/03 07:30:03;;;;;;;28.42;20.52;;;;;;;;;;5047044;28;20052;-81
2021/12/03 07:32:30;;;;;;;31.85;23.60;;;;;;;;;;5046876;28;20123;-81
2021/12/03 07:34:56;;;;;;;43.45;25.30;;;;;;;;;;5046450;28;20057;-81
2021/12/03 07:37:22;;;;;;;29.88;21.30;;;;;;;;;;5047596;28;20045;-81
2021/12/03 07:39:48;;;;;;;36.72;22.80;;;;;;;;;;5046639;28;20126;-81
2021/12/03 07:42:20;;;;;;;34.58;22.13;;;;;;;;;;5047865;28;20136;-80
2021/12/03 07:44:46;;;;;;;28.65;20.30;;;;;;;;;;5047561;28;20128;-80
2021/12/03 07:47:13;;;;;;;30.55;19.02;;;;;;;;;;5046756;28;20494;-80
2021/12/03 07:49:40;;;;;;;24.42;18.17;;;;;;;;;;5047023;28;20044;-80
2021/12/03 07:52:07;;;;;;;33.83;23.58;;;;;;;;;;5045657;28;20045;-81
2021/12/03 07:54:33;;;;;;;30.70;19.27;;;;;;;;;;5046324;28;20045;-80
2021/12/03 07:56:59;;;;;;;24.50;18.02;;;;;;;;;;5045198;28;20033;-80
2021/12/03 07:59:25;;;;;;;23.20;16.50;;;;;;;;;;5046613;28;20045;-80
2021/12/03 08:01:52;;;;;;;28.15;17.67;;;;;;;;;;5046417;28;20037;-80
2021/12/03 08:04:18;;;;;;;24.23;17.30;;;;;;;;;;5044352;28;20064;-80
2021/12/03 08:06:45;;;;;;;18.17;12.88;;;;;;;;;;5045753;28;20052;-81
2021/12/03 08:09:11;;;;;;;19.88;13.73;;;;;;;;;;5045041;28;20103;-80
2021/12/03 08:11:38;;;;;;;19.67;11.38;;;;;;;;;;5046247;28;20045;-81
2021/12/03 08:14:05;;;;;;;21.30;11.73;;;;;;;;;;5043954;28;20176;-80
2021/12/03 08:16:31;;;;;;;14.85;10.88;;;;;;;;;;5045448;28;20037;-80
2021/12/03 08:18:57;;;;;;;16.50;12.38;;;;;;;;;;5044692;28;20480;-80
2021/12/03 08:21:23;;;;;;;13.60;9.45;;;;;;;;;;5044828;28;20039;-80
2021/12/03 08:23:49;;;;;;;17.67;11.60;;;;;;;;;;5046406;28;20181;-81
2021/12/03 08:26:17;;;;;;;12.55;9.30;;;;;;;;;;5027328;28;20094;-80
2021/12/03 08:28:43;;;;;;;13.63;10.77;;;;;;;;;;5044148;28;20037;-80
2021/12/03 08:31:14;;;;;;;15.57;10.45;;;;;;;;;;5041806;28;20065;-79
2021/12/03 08:33:40;;;;;;;16.80;10.95;;;;;;;;;;5045155;28;20049;-80
2021/12/03 08:36:06;;;;;;;15.80;9.90;;;;;;;;;;5026601;28;20427;-80
2021/12/03 08:38:32;;;;;;;15.20;10.70;;;;;;;;;;5044591;28;20087;-80
2021/12/03 08:40:58;;;;;;;24.33;9.63;;;;;;;;;;5045745;28;20041;-80
2021/12/03 08:43:24;;;;;;;13.98;9.27;;;;;;;;;;5043895;28;20044;-80
2021/12/03 08:45:54;;;;;;;11.98;8.15;;;;;;;;;;5046384;28;20045;-80
2021/12/03 08:48:22;;;;;;;19.23;10.98;;;;;;;;;;5041865;28;20400;-80
2021/12/03 08:50:52;;;;;;;17.60;8.70;;;;;;;;;;5046472;28;20072;-79
2021/12/03 08:55:47;;;;;;;16.63;8.25;;;;;;;;;;5044952;28;20072;-79
2021/12/03 08:58:16;;;;;;;12.90;9.82;;;;;;;;;;5044479;28;20037;-80
2021/12/03 09:00:42;;;;;;;18.58;8.10;;;;;;;;;;5045073;28;20594;-80
2021/12/03 09:03:08;;;;;;;9.85;6.88;;;;;;;;;;5046658;28;20060;-81
2021/12/03 09:05:36;;;;;;;17.08;8.82;;;;;;;;;;5044582;28;20052;-80
2021/12/03 09:08:02;;;;;;;18.98;12.48;;;;;;;;;;5046477;28;20045;-80
2021/12/03 09:10:28;;;;;;;15.48;9.13;;;;;;;;;;5044932;28;20048;-80
2021/12/03 09:12:55;;;;;;;9.43;7.00;;;;;;;;;;5048920;28;20060;-80
2021/12/03 09:15:44;;;;;;;16.23;8.88;;;;;;;;;;5047031;28;20123;-80
2021/12/03 09:18:21;;;;;;;11.85;7.32;;;;;;;;;;5048222;28;20041;-80
2021/12/03 09:23:52;;;;;;;21.88;10.30;;;;;;;;;;5048556;28;20856;-80
2021/12/03 09:26:19;;;;;;;16.13;8.30;;;;;;;;;;5049562;28;20056;-80
2021/12/03 09:28:51;;;;;;;14.93;9.02;;;;;;;;;;5050247;28;20106;-81
2021/12/03 09:31:17;;;;;;;15.52;8.68;;;;;;;;;;5047660;28;20397;-80
2021/12/03 09:33:47;;;;;;;20.90;11.15;;;;;;;;;;5049907;28;20045;-80
2021/12/03 09:36:13;;;;;;;19.48;10.77;;;;;;;;;;5047591;28;20105;-79
2021/12/03 09:38:40;;;;;;;15.63;8.82;;;;;;;;;;5049026;28;20044;-80
2021/12/03 09:41:11;;;;;;;18.67;10.20;;;;;;;;;;5047876;28;20041;-80
2021/12/03 09:43:39;;;;;;;17.75;11.35;;;;;;;;;;5047229;28;20048;-80
2021/12/03 09:46:13;;;;;;;23.85;13.68;;;;;;;;;;5049838;28;20515;-80
2021/12/03 09:51:09;;;;;;;14.23;9.88;;;;;;;;;;5065789;28;19928;-80
2021/12/03 09:56:19;;;;;;;22.55;14.73;;;;;;;;;;5050120;28;20705;-80
2021/12/03 10:01:40;;;;;;;27.42;16.33;;;;;;;;;;5047723;28;20087;-80
2021/12/03 10:19:59;;;;;;;29.23;14.15;;;;;;;;;;5048616;28;20052;-80
2021/12/03 10:22:58;;;;;;;27.27;16.67;;;;;;;;;;5049064;28;20134;-80
2021/12/03 10:28:11;;;;;;;39.72;16.45;;;;;;;;;;5046314;28;20136;-80
2021/12/03 10:34:04;;;;;;;30.85;19.33;;;;;;;;;;5013561;28;20044;-79
2021/12/03 10:44:46;;;;;;;31.90;18.38;;;;;;;;;;5046672;28;20077;-80
2021/12/03 10:47:29;;;;;;;;;;;;;;;;;;5046058;28;20519;-80
2021/12/03 10:53:09;;;;;;;30.98;17.83;;;;;;;;;;5047747;28;20126;-79
2021/12/03 11:15:17;;;;;;;30.83;15.52;;;;;;;;;;5054780;28;20053;-80
2021/12/03 11:31:40;;;;;;;30.05;13.25;;;;;;;;;;5046947;28;20560;-79
2021/12/03 13:59:59;;;;;;;9.83;5.70;;;;;;;;;;5043304;28;20045;-79
2021/12/03 14:08:33;;;;;;;9.27;4.90;;;;;;;;;;5046891;28;21550;-79
2021/12/03 14:45:24;;;;;;;16.23;5.43;;;;;;;;;;5036030;28;20049;-79
2021/12/03 14:55:46;;;;;;;10.65;4.93;;;;;;;;;;5024667;28;20080;-78
2021/12/03 14:58:15;;;;;;;12.52;4.90;;;;;;;;;;5057960;28;20064;-78
2021/12/03 15:08:16;;;;;;;11.35;5.45;;;;;;;;;;5045560;28;20045;-76
2021/12/03 15:34:55;;;;;;;14.00;7.45;;;;;;;;;;5042571;28;20055;-76
2021/12/03 15:38:08;;;;;;;8.27;6.57;;;;;;;;;;5046085;28;20460;-77
2021/12/03 16:04:36;;;;;;;16.25;9.50;;;;;;;;;;5042284;28;20048;-75
2021/12/03 16:15:12;;;;;;;15.77;10.70;;;;;;;;;;5036267;28;20479;-76
2021/12/03 16:18:24;;;;;;;15.40;10.32;;;;;;;;;;5036728;28;20041;-76
2021/12/03 16:53:23;;;;;;;;;;;;;;;;;;5041063;28;20048;-80
2021/12/03 16:55:59;;;;;;;16.52;13.57;;;;;;;;;;5043394;28;20307;-75
2021/12/03 16:58:26;;;;;;;22.20;18.58;;;;;;;;;;5041781;28;20126;-79
2021/12/03 17:01:05;;;;;;;28.48;21.63;;;;;;;;;;5010372;28;20095;-76
2021/12/03 17:03:58;;;;;;;23.77;18.05;;;;;;;;;;5042228;28;20386;-75
2021/12/03 17:44:39;;;;;;;22.73;18.63;;;;;;;;;;5044723;28;20098;-76
2021/12/03 17:47:59;;;;;;;24.15;19.35;;;;;;;;;;5009767;28;20087;-76
2021/12/03 17:50:11;;;;;;;22.42;16.73;;;;;;;;;;5031798;28;20508;-77
2021/12/03 17:55:29;;;;;;;28.48;22.70;;;;;;;;;;5046837;28;20055;-78
2021/12/03 17:58:01;;;;;;;22.23;18.75;;;;;;;;;;5042011;28;20058;-78
2021/12/03 18:11:33;;;;;;;25.65;19.30;;;;;;;;;;5042806;28;20045;-77
2021/12/03 18:49:09;;;;;;;38.85;24.77;;;;;;;;;;5042340;28;20467;-76
2021/12/03 18:56:47;;;;;;;24.50;17.08;;;;;;;;;;5044901;28;20578;-77
2021/12/03 18:59:13;;;;;;;34.47;23.33;;;;;;;;;;5042599;28;20056;-77
2021/12/03 19:01:40;;;;;;;30.65;21.15;;;;;;;;;;5043728;28;20489;-78
2021/12/03 19:09:28;;;;;;;38.13;26.75;;;;;;;;;;5041905;28;20147;-79
2021/12/03 19:12:08;;;;;;;35.50;24.48;;;;;;;;;;5040983;28;20043;-80
2021/12/03 19:14:37;;;;;;;26.70;16.80;;;;;;;;;;5043661;28;20047;-77
2021/12/03 19:17:04;;;;;;;28.30;18.50;;;;;;;;;;5043663;28;20044;-77
2021/12/03 19:19:34;;;;;;;32.35;20.38;;;;;;;;;;5042705;28;20112;-78
2021/12/03 19:22:01;;;;;;;32.03;20.70;;;;;;;;;;5041862;28;20147;-79
2021/12/03 19:24:28;;;;;;;39.92;25.15;;;;;;;;;;5041908;28;20087;-81
2021/12/03 19:26:54;;;;;;;45.85;28.00;;;;;;;;;;5044267;28;20052;-77
2021/12/03 19:29:21;;;;;;;42.72;26.73;;;;;;;;;;5041661;28;20151;-80
2021/12/03 19:31:50;;;;;;;38.47;26.67;;;;;;;;;;5041215;28;20051;-78
2021/12/03 19:34:16;;;;;;;33.53;19.38;;;;;;;;;;5042266;28;21058;-76
2021/12/03 19:36:45;;;;;;;42.10;25.48;;;;;;;;;;5042304;28;20462;-81
2021/12/03 19:39:13;;;;;;;42.53;25.25;;;;;;;;;;5043436;28;20061;-77
2021/12/03 19:44:16;;;;;;;42.60;27.52;;;;;;;;;;5042285;28;20057;-80
2021/12/03 19:46:48;;;;;;;28.73;18.83;;;;;;;;;;5040577;28;20060;-77
2021/12/03 19:52:14;;;;;;;27.23;19.15;;;;;;;;;;5035142;28;20527;-77
2021/12/03 19:54:40;;;;;;;45.72;30.63;;;;;;;;;;5042444;28;20037;-81
2021/12/03 19:57:06;;;;;;;35.83;22.60;;;;;;;;;;5043700;28;20136;-78
2021/12/03 19:59:32;;;;;;;43.10;28.73;;;;;;;;;;5041548;28;20590;-79
2021/12/03 20:01:59;;;;;;;51.40;31.08;;;;;;;;;;5042987;28;20043;-78
2021/12/03 20:04:25;;;;;;;32.90;22.00;;;;;;;;;;5042317;28;20049;-80
2021/12/03 20:06:52;;;;;;;48.55;30.10;;;;;;;;;;5041801;28;20072;-80
2021/12/03 20:09:28;;;;;;;40.30;24.63;;;;;;;;;;5041548;28;20124;-80
2021/12/03 20:12:02;;;;;;;57.47;33.15;;;;;;;;;;5039838;28;20451;-79
2021/12/03 20:14:28;;;;;;;;;;;;;;;;;;5041713;28;20053;-78
2021/12/03 20:17:19;;;;;;;45.30;27.50;;;;;;;;;;5038671;28;19924;-79
2021/12/03 20:19:49;;;;;;;39.65;22.38;;;;;;;;;;5042044;28;20084;-82
2021/12/03 20:22:20;;;;;;;49.55;29.05;;;;;;;;;;5043089;28;20045;-79
2021/12/03 20:27:24;;;;;;;42.45;28.00;;;;;;;;;;5038109;28;20061;-78
2021/12/03 20:37:46;;;;;;;43.03;22.77;;;;;;;;;;5038917;28;20069;-80
2021/12/03 20:40:26;;;;;;;56.28;32.90;;;;;;;;;;5041082;28;20566;-78
2021/12/03 21:09:40;;;;;;;67.78;38.55;;;;;;;;;;5043132;28;20076;-78
2021/12/03 21:12:16;;;;;;;67.22;38.40;;;;;;;;;;5041987;28;20465;-77
2021/12/03 21:14:50;;;;;;;66.63;36.95;;;;;;;;;;5041138;28;20103;-77
2021/12/03 21:20:09;;;;;;;60.78;32.90;;;;;;;;;;5032081;28;20044;-79
2021/12/03 21:22:37;;;;;;;;;;;;;;;;;;5024860;28;20045;-79
2021/12/03 21:25:10;;;;;;;58.00;31.45;;;;;;;;;;5023685;28;19931;-77
2021/12/03 21:27:43;;;;;;;61.10;34.08;;;;;;;;;;5040056;28;20154;-78
2021/12/03 21:40:54;;;;;;;80.85;41.88;;;;;;;;;;5034539;28;20510;-78
2021/12/03 21:43:11;;;;;;;68.43;35.65;;;;;;;;;;5038711;28;20428;-79
2021/12/03 21:45:38;;;;;;;74.47;37.20;;;;;;;;;;5046927;28;20041;-77
2021/12/03 21:48:04;;;;;;;61.30;31.52;;;;;;;;;;5045346;28;20051;-80
2021/12/03 21:50:30;;;;;;;75.93;37.75;;;;;;;;;;5046028;28;20037;-79
2021/12/03 21:52:56;;;;;;;86.32;42.05;;;;;;;;;;5046108;28;20148;-77
2021/12/03 21:55:24;;;;;;;76.00;36.67;;;;;;;;;;5043009;28;20508;-78
2021/12/03 21:57:50;;;;;;;83.90;41.03;;;;;;;;;;5028585;28;20045;-78
2021/12/03 22:00:16;;;;;;;83.28;40.78;;;;;;;;;;5026380;28;20107;-79
2021/12/03 22:02:43;;;;;;;77.65;38.10;;;;;;;;;;5044929;28;20743;-76
2021/12/03 22:05:09;;;;;;;73.32;36.38;;;;;;;;;;5045737;28;20044;-78
2021/12/03 22:07:35;;;;;;;72.70;37.42;;;;;;;;;;5046222;28;20108;-81
2021/12/03 22:10:01;;;;;;;82.05;37.83;;;;;;;;;;5045102;28;20401;-78
2021/12/03 22:12:27;;;;;;;66.72;35.35;;;;;;;;;;5044006;28;20037;-79
2021/12/03 22:14:54;;;;;;;72.03;31.83;;;;;;;;;;5028636;28;20112;-78
2021/12/03 22:17:20;;;;;;;85.65;43.88;;;;;;;;;;5044209;28;20404;-77
2021/12/03 22:19:46;;;;;;;60.20;30.83;;;;;;;;;;5044707;28;20068;-77
2021/12/03 22:22:13;;;;;;;88.40;43.85;;;;;;;;;;5044063;28;20048;-77
2021/12/03 22:24:41;;;;;;;87.32;42.92;;;;;;;;;;5046652;28;20500;-77
2021/12/03 22:27:08;;;;;;;90.07;39.17;;;;;;;;;;5045691;28;20156;-77
2021/12/03 22:29:34;;;;;;;84.55;38.63;;;;;;;;;;5044922;28;20032;-79
2021/12/03 22:32:02;;;;;;;80.22;38.17;;;;;;;;;;5044910;28;20072;-78
2021/12/03 22:34:28;;;;;;;75.95;34.47;;;;;;;;;;5044132;28;20045;-77
2021/12/03 22:36:55;;;;;;;68.75;32.75;;;;;;;;;;5045572;28;20049;-81
2021/12/03 22:39:21;;;;;;;75.22;35.45;;;;;;;;;;5043852;28;20048;-79
2021/12/03 22:41:49;;;;;;;72.75;34.13;;;;;;;;;;5046091;28;20420;-79
2021/12/03 22:44:16;;;;;;;84.70;41.50;;;;;;;;;;5044493;28;20043;-81
2021/12/03 22:52:18;;;;;;;83.30;39.92;;;;;;;;;;5034832;28;20606;-78
2021/12/03 22:54:45;;;;;;;69.13;33.90;;;;;;;;;;5050338;28;20033;-80
2021/12/03 22:57:12;;;;;;;69.20;33.45;;;;;;;;;;5033054;28;20045;-81
2021/12/03 22:59:39;;;;;;;75.70;35.78;;;;;;;;;;5029066;28;20045;-80
2021/12/03 23:02:06;;;;;;;77.50;37.60;;;;;;;;;;5042784;28;20451;-80
2021/12/03 23:04:32;;;;;;;72.50;35.10;;;;;;;;;;5043919;28;20159;-77
2021/12/03 23:07:00;;;;;;;71.60;36.65;;;;;;;;;;5045010;28;20037;-79
2021/12/03 23:09:28;;;;;;;77.60;38.80;;;;;;;;;;5025625;28;20086;-77
2021/12/03 23:11:54;;;;;;;74.78;34.05;;;;;;;;;;5044551;28;20055;-78
2021/12/03 23:14:20;;;;;;;85.10;40.38;;;;;;;;;;5041809;28;20396;-76
2021/12/03 23:16:47;;;;;;;71.47;34.63;;;;;;;;;;5042759;28;20511;-79
2021/12/03 23:19:13;;;;;;;73.38;35.58;;;;;;;;;;5042782;28;20568;-77
2021/12/03 23:21:40;;;;;;;69.95;34.97;;;;;;;;;;5043590;28;20033;-77